LUKK/KIV METAR and TAF weather

Enter ICAO airport designator
Station Type Date Time Source
LUKK METAR 2021/01/20 23:00 UTC NOAA

LUKK 202300Z 08003KT 0450 0300SW R08/0375N FZFG VV001 M06/M07 Q1021 R08/CLRD// NOSIG


Station Type Date Time Source
LUKK Decoded METAR 2021/01/20 23:00 UTC NOAA

Chisinau International Airport, Moldova (LUKK) 46-55-40N 028-55-51E
Jan 20, 2021 - 06:00 PM EST / 2021.01.20 2300 UTC
Wind: from the E (080 degrees) at 3 MPH (3 KT):0
Visibility: less than 1 mile:0
Sky conditions: obscured
Weather: freezing fog
Temperature: 21 F (-6 C)
Dew Point: 19 F (-7 C)
Relative Humidity: 92%
Pressure (altimeter): 30.15 in. Hg (1021 hPa)
ob: LUKK 202300Z 08003KT 0450 0300SW R08/0375N FZFG VV001 M06/M07 Q1021 R08/CLRD// NOSIG
cycle: 23

Station Type Date Time Source
LUKK TAF 2021/01/20 20:18 UTC NOAA

TAF
AMD TAF
AMD LUKK 202016Z 2020/2118 14006KT 1500 BR SCT010
TEMPO 2021/2024 0500 FZFG OVC001
BECMG 2100/2102 0300 FZFG OVC001
BECMG 2107/2109 2400 BR BKN004
BECMG 2109/2111 8000 NSW SCT015
TEMPO 2115/2118 3400 BR

Example: see airport list